AirNav   Air Wisconsin Up To $57,000 Bonus
 
 1572 users online  

2TS8 Bailey Airport
Stockdale, Texas, USA

GOING TO STOCKDALE?


FAA INFORMATION EFFECTIVE 25 MARCH 2021

Location

FAA Identifier: 2TS8
Lat/Long: 29-13-13.8740N 097-52-18.0040W
29-13.231233N 097-52.300067W
29.2205206,-97.8716678
(estimated)
Elevation: 452 ft. / 138 m (estimated)
Variation: 07E (1985)
From city: 5 miles SE of STOCKDALE, TX
Time zone: UTC -5 (UTC -6 during Standard Time)
Zip code: 78160

Airport Operations

Airport use: Private use. Permission required prior to landing
Activation date: 02/1985
Control tower: no
ARTCC: HOUSTON CENTER
FSS: SAN ANGELO FLIGHT SERVICE STATION
Attendance: UNATNDD
Segmented circle: no

Nearby radio navigation aids

VOR radial/distance  VOR name  Freq  Var
RNDr125/28.1RANDOLPH VORTAC112.3005E
SSFr085/(30.0)STINSON VOR108.4009E
SATr122/39.9SAN ANTONIO VORTAC116.8008E

Airport Services

Runway Information

Runway 15/33

Dimensions: 4200 x 25 ft. / 1280 x 8 m
Surface: asphalt
RUNWAY 15  RUNWAY 33
Traffic pattern: leftleft

Airport Ownership and Management from official FAA records

Ownership: Privately-owned
Owner: H. T. BAILEY
PO BOX 8967
HONOLULU, HI 96830-0967
Manager: H. T. BAILEY
RT 2, BOX 147
STOCKDALE, TX 78160

Airport Operational Statistics

Aircraft based on the field: 6
Single engine airplanes: 3
Gliders airplanes: 3
    

Additional Remarks

CAUTION: GLIDERS FLYING DAILY MID-MORNING TO SUNSET FROM EARLY SPRING TO LATE FALL; OCCASSIONALLY DURING WINTER MONTHS.
FOR CD CTC SAN ANTONIO APCH AT 210-805-5516.

Instrument Procedures

There are no published instrument procedures at 2TS8.

Some nearby airports with instrument procedures:

2R9 - Kenedy Regional Airport (24 nm S)
KRND - Randolph Air Force Base (28 nm NW)
KBAZ - New Braunfels Regional Airport (30 nm N)
KSSF - Stinson Municipal Airport (32 nm W)
KSAT - San Antonio International Airport (36 nm NW)
 
Loc | Ops | Rwys | IFR | FBO | Links
Com | Nav | Svcs | Stats | Notes
Area around 2TS8 (Bailey Airport)
 
Road maps at: MapQuest Bing Google
 
Aerial photo
No photo
 
Sectional chart

 
Airport distance calculator
Flying to Bailey Airport? Find the distance to fly.

From to 2TS8

Sunrise and sunset
Times for 12-Apr-2021
 Local
(UTC-5)
 Zulu
(UTC)
Morning civil twilight06:4511:45
Sunrise07:1012:10
Sunset19:5500:55
Evening civil twilight20:1901:19

Current date and time
Zulu (UTC)  12-Apr-2021 21:05:35
Local (UTC-5)  12-Apr-2021 16:05:35
 
METAR
KSEQ 
21nm N 
122058Z AUTO 15013G18KT 9SM CLR 31/18 A2976 RMK AO2 SLP073 T03100179 57022
K2R9 
24nm S 
122055Z AUTO 12013G18KT 10SM SCT047 32/19 A2972 RMK AO2 T03210192
KRND 
27nm NW 
121956Z AUTO 11009KT 10SM FEW210 31/17 A2973 RMK AO2 SLP059 T03080171
KT20 
28nm NE 
122055Z AUTO 15011G15KT 10SM SCT041 30/20 A2974 RMK AO2 T03020196
KBAZ 
31nm N 
122051Z 12012G17KT 10SM CLR 32/18 A2972 RMK AO2 SLP054 T03220178 58023
KSSF 
32nm W 
122053Z 12008G17KT 10SM CLR 34/17 A2969 RMK AO2 SLP042 T03390167 56027 $
KSAT 
36nm NW 
122051Z 15012G19KT 10SM FEW250 32/16 A2972 RMK AO2 SLP046 T03220161 56025
KSKF 
37nm W 
122056Z AUTO 11008G15KT 10SM CLR 33/17 A2970 RMK AO2 SLP050 T03270173 57024 $
KPEZ 
38nm SW 
122055Z AUTO 11011KT 10SM CLR 35/18 A2970 RMK AO2 T03460177
KHYI 
40nm N 
122056Z 15010KT 10SM CLR 31/19 A2974 RMK AO2 SLP062 T03110189 58021
TAF
KRND 
27nm NW 
121555Z 1216/1322 17009KT 9999 BKN025 BKN250 QNH2974INS BECMG 1217/1218 15012KT 9999 SCT035 SCT250 QNH2970INS BECMG 1302/1303 VRB06KT 9999 BKN017 QNH2980INS BECMG 1305/1306 06006KT 9999 VCSH BKN009 QNH2985INS BECMG 1308/1309 06009KT 4800 -SHRA VCTS OVC004CB QNH2985INS BECMG 1314/1315 04012KT 8000 -SHRA VCTS OVC010CB QNH2988INS BECMG 1319/1320 03015KT 8000 SHRA VCTS OVC015CB QNH2992INS TX32/1221Z TN18/1315Z
KSSF 
32nm W 
121731Z 1218/1318 14009KT P6SM SCT040 SCT250 FM130400 08007KT P6SM BKN025 FM130700 05006KT P6SM OVC015 FM131100 04010KT 5SM BR OVC007
NOTAMs
Click for the latest NOTAMs
NOTAMs are issued by the DoD/FAA and will open in a separate window not controlled by AirNav.

 

 
 

Would you like to see your business listed on this page?

 If your business provides an interesting product or service to pilots, flight crews, aircraft, or users of the Bailey Airport, you should consider listing it here.  To start the listing process, click on the button below
 
Add a business
 

Other Pages about Bailey Airport

Update a link
 
Copyright © AirNav, LLC. All rights reserved. Privacy Policy  Contact